sensor_id;sensor_type;location;lat;lon;timestamp;P1;durP1;ratioP1;P2;durP2;ratioP2
68989;SDS011;56046;47.270;11.368;2024-02-26T00:01:45;4.00;;;1.50;;
68989;SDS011;56046;47.270;11.368;2024-02-26T00:04:11;3.33;;;1.35;;
68989;SDS011;56046;47.270;11.368;2024-02-26T00:06:37;1.57;;;0.70;;
68989;SDS011;56046;47.270;11.368;2024-02-26T00:09:04;4.88;;;1.80;;
68989;SDS011;56046;47.270;11.368;2024-02-26T00:11:31;4.22;;;1.50;;
68989;SDS011;56046;47.270;11.368;2024-02-26T00:13:56;3.80;;;1.47;;
68989;SDS011;56046;47.270;11.368;2024-02-26T00:16:22;5.40;;;1.80;;
68989;SDS011;56046;47.270;11.368;2024-02-26T00:18:48;4.40;;;1.40;;
68989;SDS011;56046;47.270;11.368;2024-02-26T00:21:13;3.43;;;1.73;;
68989;SDS011;56046;47.270;11.368;2024-02-26T00:23:38;2.97;;;1.50;;
68989;SDS011;56046;47.270;11.368;2024-02-26T00:26:03;3.93;;;1.60;;
68989;SDS011;56046;47.270;11.368;2024-02-26T00:28:29;3.37;;;1.30;;
68989;SDS011;56046;47.270;11.368;2024-02-26T00:30:54;4.37;;;1.40;;
68989;SDS011;56046;47.270;11.368;2024-02-26T00:33:21;3.10;;;1.58;;
68989;SDS011;56046;47.270;11.368;2024-02-26T00:35:46;3.13;;;1.40;;
68989;SDS011;56046;47.270;11.368;2024-02-26T00:38:11;2.40;;;1.07;;
68989;SDS011;56046;47.270;11.368;2024-02-26T00:40:36;2.63;;;0.93;;
68989;SDS011;56046;47.270;11.368;2024-02-26T00:43:02;3.20;;;1.20;;
68989;SDS011;56046;47.270;11.368;2024-02-26T00:45:27;3.93;;;1.40;;
68989;SDS011;56046;47.270;11.368;2024-02-26T00:47:52;2.30;;;0.90;;
68989;SDS011;56046;47.270;11.368;2024-02-26T00:50:18;1.40;;;0.70;;
68989;SDS011;56046;47.270;11.368;2024-02-26T00:52:43;1.43;;;0.40;;
68989;SDS011;56046;47.270;11.368;2024-02-26T00:55:08;2.53;;;0.73;;
68989;SDS011;56046;47.270;11.368;2024-02-26T00:57:33;3.00;;;0.93;;
68989;SDS011;56046;47.270;11.368;2024-02-26T00:59:59;2.37;;;0.90;;
68989;SDS011;56046;47.270;11.368;2024-02-26T01:02:25;2.72;;;1.10;;
68989;SDS011;56046;47.270;11.368;2024-02-26T01:04:50;1.43;;;0.80;;
68989;SDS011;56046;47.270;11.368;2024-02-26T01:07:16;0.50;;;0.30;;
68989;SDS011;56046;47.270;11.368;2024-02-26T01:09:41;0.90;;;0.60;;
68989;SDS011;56046;47.270;11.368;2024-02-26T01:12:07;2.90;;;1.00;;
68989;SDS011;56046;47.270;11.368;2024-02-26T01:14:32;2.90;;;1.30;;
68989;SDS011;56046;47.270;11.368;2024-02-26T01:16:57;3.23;;;1.20;;
68989;SDS011;56046;47.270;11.368;2024-02-26T01:19:22;2.97;;;1.20;;
68989;SDS011;56046;47.270;11.368;2024-02-26T01:21:48;2.07;;;0.70;;
68989;SDS011;56046;47.270;11.368;2024-02-26T01:24:13;2.53;;;1.10;;
68989;SDS011;56046;47.270;11.368;2024-02-26T01:26:38;3.33;;;1.70;;
68989;SDS011;56046;47.270;11.368;2024-02-26T01:29:04;4.90;;;1.50;;
68989;SDS011;56046;47.270;11.368;2024-02-26T01:31:29;4.57;;;1.77;;
68989;SDS011;56046;47.270;11.368;2024-02-26T01:33:54;3.97;;;1.27;;
68989;SDS011;56046;47.270;11.368;2024-02-26T01:36:19;1.73;;;0.70;;
68989;SDS011;56046;47.270;11.368;2024-02-26T01:38:45;1.55;;;0.60;;
68989;SDS011;56046;47.270;11.368;2024-02-26T01:41:11;4.83;;;1.20;;
68989;SDS011;56046;47.270;11.368;2024-02-26T01:43:36;4.30;;;1.53;;
68989;SDS011;56046;47.270;11.368;2024-02-26T01:46:01;1.43;;;0.73;;
68989;SDS011;56046;47.270;11.368;2024-02-26T01:48:27;1.67;;;0.60;;
68989;SDS011;56046;47.270;11.368;2024-02-26T01:50:52;0.93;;;0.40;;
68989;SDS011;56046;47.270;11.368;2024-02-26T01:53:18;2.00;;;0.87;;
68989;SDS011;56046;47.270;11.368;2024-02-26T01:55:43;2.97;;;1.20;;
68989;SDS011;56046;47.270;11.368;2024-02-26T01:58:09;1.67;;;0.50;;
68989;SDS011;56046;47.270;11.368;2024-02-26T02:00:34;1.33;;;0.50;;
68989;SDS011;56046;47.270;11.368;2024-02-26T02:03:00;2.33;;;0.60;;
68989;SDS011;56046;47.270;11.368;2024-02-26T02:05:26;0.70;;;0.50;;
68989;SDS011;56046;47.270;11.368;2024-02-26T02:07:51;1.07;;;0.70;;
68989;SDS011;56046;47.270;11.368;2024-02-26T02:10:17;2.50;;;0.80;;
68989;SDS011;56046;47.270;11.368;2024-02-26T02:12:47;2.38;;;1.08;;
68989;SDS011;56046;47.270;11.368;2024-02-26T02:15:13;2.30;;;0.95;;
68989;SDS011;56046;47.270;11.368;2024-02-26T02:17:38;1.90;;;0.80;;
68989;SDS011;56046;47.270;11.368;2024-02-26T02:20:06;1.23;;;0.60;;
68989;SDS011;56046;47.270;11.368;2024-02-26T02:22:32;1.13;;;0.60;;
68989;SDS011;56046;47.270;11.368;2024-02-26T02:24:58;0.70;;;0.40;;
68989;SDS011;56046;47.270;11.368;2024-02-26T02:27:24;0.75;;;0.30;;
68989;SDS011;56046;47.270;11.368;2024-02-26T02:29:49;1.03;;;0.60;;
68989;SDS011;56046;47.270;11.368;2024-02-26T02:32:14;0.47;;;0.23;;
68989;SDS011;56046;47.270;11.368;2024-02-26T02:34:41;3.20;;;0.98;;
68989;SDS011;56046;47.270;11.368;2024-02-26T02:37:06;3.53;;;1.70;;
68989;SDS011;56046;47.270;11.368;2024-02-26T02:39:31;2.63;;;1.17;;
68989;SDS011;56046;47.270;11.368;2024-02-26T02:41:56;1.83;;;0.70;;
68989;SDS011;56046;47.270;11.368;2024-02-26T02:44:22;0.87;;;0.40;;
68989;SDS011;56046;47.270;11.368;2024-02-26T02:46:47;1.33;;;0.60;;
68989;SDS011;56046;47.270;11.368;2024-02-26T02:49:13;1.30;;;0.50;;
68989;SDS011;56046;47.270;11.368;2024-02-26T02:51:39;2.35;;;0.75;;
68989;SDS011;56046;47.270;11.368;2024-02-26T02:54:04;1.37;;;0.50;;
68989;SDS011;56046;47.270;11.368;2024-02-26T02:56:29;1.00;;;0.40;;
68989;SDS011;56046;47.270;11.368;2024-02-26T02:58:55;0.80;;;0.40;;
68989;SDS011;56046;47.270;11.368;2024-02-26T03:01:20;2.20;;;0.70;;
68989;SDS011;56046;47.270;11.368;2024-02-26T03:03:45;2.13;;;0.80;;
68989;SDS011;56046;47.270;11.368;2024-02-26T03:06:10;1.60;;;0.87;;
68989;SDS011;56046;47.270;11.368;2024-02-26T03:08:36;3.50;;;1.20;;
68989;SDS011;56046;47.270;11.368;2024-02-26T03:11:04;3.13;;;1.10;;
68989;SDS011;56046;47.270;11.368;2024-02-26T03:13:30;3.20;;;1.30;;
68989;SDS011;56046;47.270;11.368;2024-02-26T03:15:55;1.87;;;0.90;;
68989;SDS011;56046;47.270;11.368;2024-02-26T03:18:20;2.67;;;0.90;;
68989;SDS011;56046;47.270;11.368;2024-02-26T03:20:45;1.43;;;0.70;;
68989;SDS011;56046;47.270;11.368;2024-02-26T03:23:11;1.57;;;0.67;;
68989;SDS011;56046;47.270;11.368;2024-02-26T03:25:39;1.92;;;0.60;;
68989;SDS011;56046;47.270;11.368;2024-02-26T03:28:05;0.70;;;0.60;;
68989;SDS011;56046;47.270;11.368;2024-02-26T03:30:30;2.03;;;0.80;;
68989;SDS011;56046;47.270;11.368;2024-02-26T03:32:55;0.90;;;0.50;;
68989;SDS011;56046;47.270;11.368;2024-02-26T03:35:20;1.63;;;0.80;;
68989;SDS011;56046;47.270;11.368;2024-02-26T03:37:46;1.27;;;0.47;;
68989;SDS011;56046;47.270;11.368;2024-02-26T03:40:12;2.40;;;0.80;;
68989;SDS011;56046;47.270;11.368;2024-02-26T03:42:39;0.95;;;0.50;;
68989;SDS011;56046;47.270;11.368;2024-02-26T03:45:05;0.80;;;0.40;;
68989;SDS011;56046;47.270;11.368;2024-02-26T03:47:30;1.07;;;0.60;;
68989;SDS011;56046;47.270;11.368;2024-02-26T03:49:55;1.97;;;0.73;;
68989;SDS011;56046;47.270;11.368;2024-02-26T03:52:21;1.45;;;0.90;;
68989;SDS011;56046;47.270;11.368;2024-02-26T03:54:46;2.57;;;0.80;;
68989;SDS011;56046;47.270;11.368;2024-02-26T03:57:11;1.90;;;0.90;;
68989;SDS011;56046;47.270;11.368;2024-02-26T03:59:37;1.53;;;0.70;;
68989;SDS011;56046;47.270;11.368;2024-02-26T04:02:02;1.93;;;0.70;;
68989;SDS011;56046;47.270;11.368;2024-02-26T04:04:27;1.70;;;0.70;;
68989;SDS011;56046;47.270;11.368;2024-02-26T04:06:53;1.80;;;0.70;;
68989;SDS011;56046;47.270;11.368;2024-02-26T04:09:18;2.30;;;0.87;;
68989;SDS011;56046;47.270;11.368;2024-02-26T04:11:43;4.03;;;1.13;;
68989;SDS011;56046;47.270;11.368;2024-02-26T04:14:08;2.73;;;1.07;;
68989;SDS011;56046;47.270;11.368;2024-02-26T04:16:34;3.27;;;0.80;;
68989;SDS011;56046;47.270;11.368;2024-02-26T04:19:00;0.75;;;0.40;;
68989;SDS011;56046;47.270;11.368;2024-02-26T04:21:25;0.77;;;0.40;;
68989;SDS011;56046;47.270;11.368;2024-02-26T04:23:51;0.93;;;0.40;;
68989;SDS011;56046;47.270;11.368;2024-02-26T04:26:20;0.60;;;0.40;;
68989;SDS011;56046;47.270;11.368;2024-02-26T04:28:46;0.55;;;0.40;;
68989;SDS011;56046;47.270;11.368;2024-02-26T04:31:12;2.63;;;1.40;;
68989;SDS011;56046;47.270;11.368;2024-02-26T04:33:37;2.30;;;0.80;;
68989;SDS011;56046;47.270;11.368;2024-02-26T04:36:03;2.70;;;0.90;;
68989;SDS011;56046;47.270;11.368;2024-02-26T04:38:28;2.43;;;1.00;;
68989;SDS011;56046;47.270;11.368;2024-02-26T04:40:53;1.73;;;0.60;;
68989;SDS011;56046;47.270;11.368;2024-02-26T04:43:19;0.90;;;0.50;;
68989;SDS011;56046;47.270;11.368;2024-02-26T04:45:44;1.00;;;0.50;;
68989;SDS011;56046;47.270;11.368;2024-02-26T04:48:09;1.83;;;0.80;;
68989;SDS011;56046;47.270;11.368;2024-02-26T04:50:34;0.97;;;0.60;;
68989;SDS011;56046;47.270;11.368;2024-02-26T04:53:00;2.27;;;0.70;;
68989;SDS011;56046;47.270;11.368;2024-02-26T04:55:25;1.13;;;0.40;;
68989;SDS011;56046;47.270;11.368;2024-02-26T04:57:50;0.80;;;0.40;;
68989;SDS011;56046;47.270;11.368;2024-02-26T05:00:15;1.97;;;0.50;;
68989;SDS011;56046;47.270;11.368;2024-02-26T05:02:41;1.52;;;0.30;;
68989;SDS011;56046;47.270;11.368;2024-02-26T05:05:06;2.10;;;0.87;;
68989;SDS011;56046;47.270;11.368;2024-02-26T05:07:33;2.30;;;0.77;;
68989;SDS011;56046;47.270;11.368;2024-02-26T05:09:58;2.23;;;0.80;;
68989;SDS011;56046;47.270;11.368;2024-02-26T05:12:24;1.50;;;0.77;;
68989;SDS011;56046;47.270;11.368;2024-02-26T05:14:49;2.03;;;0.90;;
68989;SDS011;56046;47.270;11.368;2024-02-26T05:17:14;2.23;;;1.03;;
68989;SDS011;56046;47.270;11.368;2024-02-26T05:19:40;1.77;;;0.80;;
68989;SDS011;56046;47.270;11.368;2024-02-26T05:22:05;1.23;;;0.67;;
68989;SDS011;56046;47.270;11.368;2024-02-26T05:24:30;4.80;;;1.30;;
68989;SDS011;56046;47.270;11.368;2024-02-26T05:26:55;2.23;;;0.80;;
68989;SDS011;56046;47.270;11.368;2024-02-26T05:29:21;2.63;;;0.70;;
68989;SDS011;56046;47.270;11.368;2024-02-26T05:31:46;1.70;;;0.90;;
68989;SDS011;56046;47.270;11.368;2024-02-26T05:34:11;2.45;;;0.75;;
68989;SDS011;56046;47.270;11.368;2024-02-26T05:36:36;1.85;;;0.90;;
68989;SDS011;56046;47.270;11.368;2024-02-26T05:39:02;2.40;;;0.80;;
68989;SDS011;56046;47.270;11.368;2024-02-26T05:41:28;1.20;;;0.60;;
68989;SDS011;56046;47.270;11.368;2024-02-26T05:43:54;2.07;;;0.60;;
68989;SDS011;56046;47.270;11.368;2024-02-26T05:46:19;3.50;;;0.70;;
68989;SDS011;56046;47.270;11.368;2024-02-26T05:48:46;1.98;;;0.75;;
68989;SDS011;56046;47.270;11.368;2024-02-26T05:51:12;2.05;;;1.00;;
68989;SDS011;56046;47.270;11.368;2024-02-26T05:53:37;3.47;;;0.80;;
68989;SDS011;56046;47.270;11.368;2024-02-26T05:56:03;1.10;;;0.60;;
68989;SDS011;56046;47.270;11.368;2024-02-26T05:58:28;1.42;;;0.70;;
68989;SDS011;56046;47.270;11.368;2024-02-26T06:00:54;1.70;;;0.73;;
68989;SDS011;56046;47.270;11.368;2024-02-26T06:03:19;4.13;;;1.58;;
68989;SDS011;56046;47.270;11.368;2024-02-26T06:05:45;7.03;;;1.30;;
68989;SDS011;56046;47.270;11.368;2024-02-26T06:08:10;3.42;;;1.60;;
68989;SDS011;56046;47.270;11.368;2024-02-26T06:10:36;1.80;;;0.90;;
68989;SDS011;56046;47.270;11.368;2024-02-26T06:13:01;2.90;;;1.33;;
68989;SDS011;56046;47.270;11.368;2024-02-26T06:15:26;3.97;;;1.40;;
68989;SDS011;56046;47.270;11.368;2024-02-26T06:17:51;4.33;;;1.20;;
68989;SDS011;56046;47.270;11.368;2024-02-26T06:20:17;2.43;;;1.20;;
68989;SDS011;56046;47.270;11.368;2024-02-26T06:22:42;2.93;;;1.30;;
68989;SDS011;56046;47.270;11.368;2024-02-26T06:25:08;2.13;;;1.00;;
68989;SDS011;56046;47.270;11.368;2024-02-26T06:27:34;1.23;;;0.47;;
68989;SDS011;56046;47.270;11.368;2024-02-26T06:29:59;2.58;;;1.00;;
68989;SDS011;56046;47.270;11.368;2024-02-26T06:32:24;1.77;;;1.07;;
68989;SDS011;56046;47.270;11.368;2024-02-26T06:34:52;2.28;;;0.90;;
68989;SDS011;56046;47.270;11.368;2024-02-26T06:37:17;3.97;;;0.93;;
68989;SDS011;56046;47.270;11.368;2024-02-26T06:39:43;3.07;;;1.10;;
68989;SDS011;56046;47.270;11.368;2024-02-26T06:42:08;4.20;;;1.33;;
68989;SDS011;56046;47.270;11.368;2024-02-26T06:44:33;3.43;;;1.37;;
68989;SDS011;56046;47.270;11.368;2024-02-26T06:46:59;2.90;;;1.37;;
68989;SDS011;56046;47.270;11.368;2024-02-26T06:49:24;1.97;;;0.93;;
68989;SDS011;56046;47.270;11.368;2024-02-26T06:51:50;1.97;;;0.83;;
68989;SDS011;56046;47.270;11.368;2024-02-26T06:54:15;3.87;;;1.40;;
68989;SDS011;56046;47.270;11.368;2024-02-26T06:56:40;4.30;;;1.63;;
68989;SDS011;56046;47.270;11.368;2024-02-26T06:59:05;4.00;;;1.57;;
68989;SDS011;56046;47.270;11.368;2024-02-26T07:01:31;3.03;;;1.50;;
68989;SDS011;56046;47.270;11.368;2024-02-26T07:03:56;4.13;;;1.50;;
68989;SDS011;56046;47.270;11.368;2024-02-26T07:06:21;3.20;;;1.50;;
68989;SDS011;56046;47.270;11.368;2024-02-26T07:08:46;1.47;;;0.87;;
68989;SDS011;56046;47.270;11.368;2024-02-26T07:11:11;1.97;;;1.10;;
68989;SDS011;56046;47.270;11.368;2024-02-26T07:13:37;4.15;;;1.25;;
68989;SDS011;56046;47.270;11.368;2024-02-26T07:16:02;2.22;;;1.05;;
68989;SDS011;56046;47.270;11.368;2024-02-26T07:18:28;2.20;;;0.90;;
68989;SDS011;56046;47.270;11.368;2024-02-26T07:20:53;3.70;;;1.07;;
68989;SDS011;56046;47.270;11.368;2024-02-26T07:23:18;3.53;;;0.90;;
68989;SDS011;56046;47.270;11.368;2024-02-26T07:25:44;4.03;;;1.40;;
68989;SDS011;56046;47.270;11.368;2024-02-26T07:28:09;4.53;;;1.50;;
68989;SDS011;56046;47.270;11.368;2024-02-26T07:30:34;3.42;;;1.40;;
68989;SDS011;56046;47.270;11.368;2024-02-26T07:33:00;11.23;;;1.50;;
68989;SDS011;56046;47.270;11.368;2024-02-26T07:35:25;1.80;;;0.93;;
68989;SDS011;56046;47.270;11.368;2024-02-26T07:37:52;3.60;;;1.25;;
68989;SDS011;56046;47.270;11.368;2024-02-26T07:40:17;4.27;;;1.53;;
68989;SDS011;56046;47.270;11.368;2024-02-26T07:42:43;6.07;;;1.47;;
68989;SDS011;56046;47.270;11.368;2024-02-26T07:45:09;2.93;;;1.07;;
68989;SDS011;56046;47.270;11.368;2024-02-26T07:47:34;1.40;;;0.95;;
68989;SDS011;56046;47.270;11.368;2024-02-26T07:50:00;2.90;;;1.20;;
68989;SDS011;56046;47.270;11.368;2024-02-26T07:52:26;3.20;;;1.30;;
68989;SDS011;56046;47.270;11.368;2024-02-26T07:54:51;1.13;;;0.60;;
68989;SDS011;56046;47.270;11.368;2024-02-26T07:57:16;2.30;;;0.77;;
68989;SDS011;56046;47.270;11.368;2024-02-26T07:59:42;5.32;;;2.08;;
68989;SDS011;56046;47.270;11.368;2024-02-26T08:02:08;1.85;;;0.98;;
68989;SDS011;56046;47.270;11.368;2024-02-26T08:04:33;3.63;;;1.47;;
68989;SDS011;56046;47.270;11.368;2024-02-26T08:06:58;2.53;;;1.20;;
68989;SDS011;56046;47.270;11.368;2024-02-26T08:09:23;2.00;;;0.90;;
68989;SDS011;56046;47.270;11.368;2024-02-26T08:11:49;1.40;;;0.77;;
68989;SDS011;56046;47.270;11.368;2024-02-26T08:14:14;3.17;;;1.53;;
68989;SDS011;56046;47.270;11.368;2024-02-26T08:16:39;4.07;;;1.50;;
68989;SDS011;56046;47.270;11.368;2024-02-26T08:19:04;3.93;;;1.83;;
68989;SDS011;56046;47.270;11.368;2024-02-26T08:21:30;4.83;;;1.77;;
68989;SDS011;56046;47.270;11.368;2024-02-26T08:23:55;3.33;;;1.47;;
68989;SDS011;56046;47.270;11.368;2024-02-26T08:26:20;4.93;;;1.90;;
68989;SDS011;56046;47.270;11.368;2024-02-26T08:28:47;5.22;;;2.30;;
68989;SDS011;56046;47.270;11.368;2024-02-26T08:31:14;5.53;;;1.63;;
68989;SDS011;56046;47.270;11.368;2024-02-26T08:33:39;5.13;;;1.53;;
68989;SDS011;56046;47.270;11.368;2024-02-26T08:36:05;4.23;;;1.80;;
68989;SDS011;56046;47.270;11.368;2024-02-26T08:38:30;6.03;;;2.00;;
68989;SDS011;56046;47.270;11.368;2024-02-26T08:40:55;3.37;;;1.30;;
68989;SDS011;56046;47.270;11.368;2024-02-26T08:43:20;2.97;;;1.07;;
68989;SDS011;56046;47.270;11.368;2024-02-26T08:45:46;2.93;;;1.33;;
68989;SDS011;56046;47.270;11.368;2024-02-26T08:48:11;2.90;;;1.30;;
68989;SDS011;56046;47.270;11.368;2024-02-26T08:50:36;1.83;;;0.70;;
68989;SDS011;56046;47.270;11.368;2024-02-26T08:53:01;2.13;;;1.10;;
68989;SDS011;56046;47.270;11.368;2024-02-26T08:55:28;4.32;;;1.30;;
68989;SDS011;56046;47.270;11.368;2024-02-26T08:57:54;5.40;;;2.00;;
68989;SDS011;56046;47.270;11.368;2024-02-26T09:00:19;4.93;;;2.20;;
68989;SDS011;56046;47.270;11.368;2024-02-26T09:02:45;11.43;;;2.50;;
68989;SDS011;56046;47.270;11.368;2024-02-26T09:05:11;5.00;;;1.67;;
68989;SDS011;56046;47.270;11.368;2024-02-26T09:07:36;1.47;;;0.73;;
68989;SDS011;56046;47.270;11.368;2024-02-26T09:10:01;1.10;;;0.50;;
68989;SDS011;56046;47.270;11.368;2024-02-26T09:12:27;1.80;;;0.70;;
68989;SDS011;56046;47.270;11.368;2024-02-26T09:14:52;3.17;;;1.50;;
68989;SDS011;56046;47.270;11.368;2024-02-26T09:17:17;2.10;;;0.70;;
68989;SDS011;56046;47.270;11.368;2024-02-26T09:19:42;4.00;;;1.50;;
68989;SDS011;56046;47.270;11.368;2024-02-26T09:22:09;4.15;;;1.60;;
68989;SDS011;56046;47.270;11.368;2024-02-26T09:24:34;4.30;;;1.70;;
68989;SDS011;56046;47.270;11.368;2024-02-26T09:26:59;1.40;;;0.90;;
68989;SDS011;56046;47.270;11.368;2024-02-26T09:29:24;1.47;;;0.73;;
68989;SDS011;56046;47.270;11.368;2024-02-26T09:31:51;4.88;;;1.63;;
68989;SDS011;56046;47.270;11.368;2024-02-26T09:34:16;7.40;;;2.00;;
68989;SDS011;56046;47.270;11.368;2024-02-26T09:36:43;4.77;;;1.87;;
68989;SDS011;56046;47.270;11.368;2024-02-26T09:39:08;2.97;;;1.35;;
68989;SDS011;56046;47.270;11.368;2024-02-26T09:41:36;4.60;;;1.38;;
68989;SDS011;56046;47.270;11.368;2024-02-26T09:44:01;1.40;;;0.53;;
68989;SDS011;56046;47.270;11.368;2024-02-26T09:46:27;3.25;;;1.30;;
68989;SDS011;56046;47.270;11.368;2024-02-26T09:48:53;5.50;;;2.30;;
68989;SDS011;56046;47.270;11.368;2024-02-26T09:51:18;6.33;;;2.37;;
68989;SDS011;56046;47.270;11.368;2024-02-26T09:53:44;6.18;;;2.40;;
68989;SDS011;56046;47.270;11.368;2024-02-26T09:56:11;8.20;;;2.15;;
68989;SDS011;56046;47.270;11.368;2024-02-26T09:58:37;5.20;;;1.53;;
68989;SDS011;56046;47.270;11.368;2024-02-26T10:01:03;5.18;;;1.92;;
68989;SDS011;56046;47.270;11.368;2024-02-26T10:03:38;1.55;;;0.80;;
68989;SDS011;56046;47.270;11.368;2024-02-26T10:06:04;0.93;;;0.50;;
68989;SDS011;56046;47.270;11.368;2024-02-26T10:08:30;1.67;;;0.60;;
68989;SDS011;56046;47.270;11.368;2024-02-26T10:10:56;0.57;;;0.40;;
68989;SDS011;56046;47.270;11.368;2024-02-26T10:13:21;6.00;;;1.40;;
68989;SDS011;56046;47.270;11.368;2024-02-26T10:15:48;1.98;;;0.65;;
68989;SDS011;56046;47.270;11.368;2024-02-26T10:18:13;2.70;;;1.30;;
68989;SDS011;56046;47.270;11.368;2024-02-26T10:20:38;3.27;;;1.10;;
68989;SDS011;56046;47.270;11.368;2024-02-26T10:23:04;5.00;;;1.50;;
68989;SDS011;56046;47.270;11.368;2024-02-26T10:25:30;8.55;;;1.60;;
68989;SDS011;56046;47.270;11.368;2024-02-26T10:27:58;2.40;;;0.98;;
68989;SDS011;56046;47.270;11.368;2024-02-26T10:30:24;1.13;;;0.80;;
68989;SDS011;56046;47.270;11.368;2024-02-26T10:32:51;3.65;;;1.15;;
68989;SDS011;56046;47.270;11.368;2024-02-26T10:35:16;3.67;;;1.27;;
68989;SDS011;56046;47.270;11.368;2024-02-26T10:37:48;5.40;;;1.20;;
68989;SDS011;56046;47.270;11.368;2024-02-26T10:40:14;1.13;;;0.60;;
68989;SDS011;56046;47.270;11.368;2024-02-26T10:42:40;1.15;;;0.50;;
68989;SDS011;56046;47.270;11.368;2024-02-26T10:45:06;2.10;;;0.60;;
68989;SDS011;56046;47.270;11.368;2024-02-26T10:47:31;1.77;;;1.10;;
68989;SDS011;56046;47.270;11.368;2024-02-26T10:49:58;0.60;;;0.30;;
68989;SDS011;56046;47.270;11.368;2024-02-26T10:52:24;1.13;;;0.60;;
68989;SDS011;56046;47.270;11.368;2024-02-26T10:54:50;4.13;;;1.60;;
68989;SDS011;56046;47.270;11.368;2024-02-26T10:57:18;2.88;;;0.95;;
68989;SDS011;56046;47.270;11.368;2024-02-26T10:59:44;4.60;;;0.90;;
68989;SDS011;56046;47.270;11.368;2024-02-26T11:02:10;0.82;;;0.47;;
68989;SDS011;56046;47.270;11.368;2024-02-26T11:04:35;0.87;;;0.50;;
68989;SDS011;56046;47.270;11.368;2024-02-26T11:07:01;0.50;;;0.30;;
68989;SDS011;56046;47.270;11.368;2024-02-26T11:09:27;0.52;;;0.40;;
68989;SDS011;56046;47.270;11.368;2024-02-26T11:11:53;2.07;;;0.60;;
68989;SDS011;56046;47.270;11.368;2024-02-26T11:14:19;0.95;;;0.60;;
68989;SDS011;56046;47.270;11.368;2024-02-26T11:16:45;0.63;;;0.60;;
68989;SDS011;56046;47.270;11.368;2024-02-26T11:19:11;0.63;;;0.38;;
68989;SDS011;56046;47.270;11.368;2024-02-26T11:21:37;0.40;;;0.37;;
68989;SDS011;56046;47.270;11.368;2024-02-26T11:24:07;1.58;;;0.77;;
68989;SDS011;56046;47.270;11.368;2024-02-26T11:26:33;1.80;;;0.40;;
68989;SDS011;56046;47.270;11.368;2024-02-26T11:29:01;0.50;;;0.43;;
68989;SDS011;56046;47.270;11.368;2024-02-26T11:31:26;1.20;;;0.70;;
68989;SDS011;56046;47.270;11.368;2024-02-26T11:33:53;0.43;;;0.40;;
68989;SDS011;56046;47.270;11.368;2024-02-26T11:36:18;0.73;;;0.63;;
68989;SDS011;56046;47.270;11.368;2024-02-26T11:38:44;1.27;;;0.53;;
68989;SDS011;56046;47.270;11.368;2024-02-26T11:41:13;1.05;;;0.52;;
68989;SDS011;56046;47.270;11.368;2024-02-26T11:46:27;1.02;;;0.25;;
68989;SDS011;56046;47.270;11.368;2024-02-26T11:51:50;0.80;;;0.77;;
68989;SDS011;56046;47.270;11.368;2024-02-26T11:54:31;0.73;;;0.50;;
68989;SDS011;56046;47.270;11.368;2024-02-26T11:57:00;0.75;;;0.55;;
68989;SDS011;56046;47.270;11.368;2024-02-26T11:59:39;0.50;;;0.40;;
68989;SDS011;56046;47.270;11.368;2024-02-26T12:02:05;0.90;;;0.40;;
68989;SDS011;56046;47.270;11.368;2024-02-26T12:04:32;0.80;;;0.70;;
68989;SDS011;56046;47.270;11.368;2024-02-26T12:06:58;0.70;;;0.60;;
68989;SDS011;56046;47.270;11.368;2024-02-26T12:11:56;1.42;;;0.55;;
68989;SDS011;56046;47.270;11.368;2024-02-26T12:14:24;1.88;;;0.77;;
68989;SDS011;56046;47.270;11.368;2024-02-26T12:16:50;1.90;;;0.60;;
68989;SDS011;56046;47.270;11.368;2024-02-26T12:19:15;0.70;;;0.60;;
68989;SDS011;56046;47.270;11.368;2024-02-26T12:21:41;0.93;;;0.60;;
68989;SDS011;56046;47.270;11.368;2024-02-26T12:24:07;0.40;;;0.30;;
68989;SDS011;56046;47.270;11.368;2024-02-26T12:26:33;0.30;;;0.30;;
68989;SDS011;56046;47.270;11.368;2024-02-26T12:28:58;0.50;;;0.50;;
68989;SDS011;56046;47.270;11.368;2024-02-26T12:31:23;1.10;;;0.70;;
68989;SDS011;56046;47.270;11.368;2024-02-26T12:33:49;0.60;;;0.33;;
68989;SDS011;56046;47.270;11.368;2024-02-26T12:36:14;1.30;;;0.40;;
68989;SDS011;56046;47.270;11.368;2024-02-26T12:38:39;0.80;;;0.47;;
68989;SDS011;56046;47.270;11.368;2024-02-26T12:41:04;1.57;;;0.77;;
68989;SDS011;56046;47.270;11.368;2024-02-26T12:43:31;4.07;;;0.70;;
68989;SDS011;56046;47.270;11.368;2024-02-26T12:45:56;1.10;;;0.50;;
68989;SDS011;56046;47.270;11.368;2024-02-26T12:48:22;0.67;;;0.40;;
68989;SDS011;56046;47.270;11.368;2024-02-26T12:50:47;1.57;;;0.40;;
68989;SDS011;56046;47.270;11.368;2024-02-26T12:53:12;1.27;;;0.63;;
68989;SDS011;56046;47.270;11.368;2024-02-26T12:55:37;1.53;;;0.40;;
68989;SDS011;56046;47.270;11.368;2024-02-26T12:58:05;1.10;;;0.77;;
68989;SDS011;56046;47.270;11.368;2024-02-26T13:00:30;0.60;;;0.60;;
68989;SDS011;56046;47.270;11.368;2024-02-26T13:02:56;2.55;;;0.73;;
68989;SDS011;56046;47.270;11.368;2024-02-26T13:05:24;1.90;;;0.60;;
68989;SDS011;56046;47.270;11.368;2024-02-26T13:07:49;1.33;;;0.40;;
68989;SDS011;56046;47.270;11.368;2024-02-26T13:10:16;1.85;;;1.00;;
68989;SDS011;56046;47.270;11.368;2024-02-26T13:12:47;1.95;;;0.68;;
68989;SDS011;56046;47.270;11.368;2024-02-26T13:15:16;0.55;;;0.47;;
68989;SDS011;56046;47.270;11.368;2024-02-26T13:17:42;2.13;;;0.30;;
68989;SDS011;56046;47.270;11.368;2024-02-26T13:20:08;0.80;;;0.57;;
68989;SDS011;56046;47.270;11.368;2024-02-26T13:22:34;0.90;;;0.43;;
68989;SDS011;56046;47.270;11.368;2024-02-26T13:25:00;1.13;;;0.40;;
68989;SDS011;56046;47.270;11.368;2024-02-26T13:27:27;3.03;;;1.27;;
68989;SDS011;56046;47.270;11.368;2024-02-26T13:30:08;1.40;;;0.53;;
68989;SDS011;56046;47.270;11.368;2024-02-26T13:32:34;1.08;;;0.50;;
68989;SDS011;56046;47.270;11.368;2024-02-26T13:35:04;2.70;;;0.80;;
68989;SDS011;56046;47.270;11.368;2024-02-26T13:37:29;2.42;;;0.30;;
68989;SDS011;56046;47.270;11.368;2024-02-26T13:39:54;6.40;;;0.90;;
68989;SDS011;56046;47.270;11.368;2024-02-26T13:42:19;0.83;;;0.37;;
68989;SDS011;56046;47.270;11.368;2024-02-26T13:44:45;0.90;;;0.50;;
68989;SDS011;56046;47.270;11.368;2024-02-26T13:47:10;1.67;;;0.53;;
68989;SDS011;56046;47.270;11.368;2024-02-26T13:49:35;1.10;;;0.60;;
68989;SDS011;56046;47.270;11.368;2024-02-26T13:52:00;2.07;;;0.53;;
68989;SDS011;56046;47.270;11.368;2024-02-26T13:54:26;0.70;;;0.40;;
68989;SDS011;56046;47.270;11.368;2024-02-26T13:56:51;0.57;;;0.43;;
68989;SDS011;56046;47.270;11.368;2024-02-26T13:59:18;1.10;;;0.70;;
68989;SDS011;56046;47.270;11.368;2024-02-26T14:01:43;1.25;;;0.70;;
68989;SDS011;56046;47.270;11.368;2024-02-26T14:04:08;1.80;;;0.70;;
68989;SDS011;56046;47.270;11.368;2024-02-26T14:06:34;1.17;;;0.70;;
68989;SDS011;56046;47.270;11.368;2024-02-26T14:08:59;0.93;;;0.60;;
68989;SDS011;56046;47.270;11.368;2024-02-26T14:11:26;1.20;;;0.70;;
68989;SDS011;56046;47.270;11.368;2024-02-26T14:13:54;0.60;;;0.30;;
68989;SDS011;56046;47.270;11.368;2024-02-26T14:16:19;3.10;;;0.53;;
68989;SDS011;56046;47.270;11.368;2024-02-26T14:18:45;1.00;;;0.40;;
68989;SDS011;56046;47.270;11.368;2024-02-26T14:21:11;0.70;;;0.57;;
68989;SDS011;56046;47.270;11.368;2024-02-26T14:23:37;0.63;;;0.50;;
68989;SDS011;56046;47.270;11.368;2024-02-26T14:26:02;2.83;;;0.60;;
68989;SDS011;56046;47.270;11.368;2024-02-26T14:28:28;1.23;;;0.60;;
68989;SDS011;56046;47.270;11.368;2024-02-26T14:30:54;0.97;;;0.53;;
68989;SDS011;56046;47.270;11.368;2024-02-26T14:33:19;0.70;;;0.50;;